Time;durP1;ratioP1;P1;durP2;ratioP2;P2;SDS_P1;SDS_P2;PMS_P1;PMS_P2;Temp;Humidity;BMP_temperature;BMP_pressure;BME280_temperature;BME280_humidity;BME280_pressure;Samples;Min_cycle;Max_cycle;Signal;HPM_P1;HPM_P2
2023/10/11 00:01:27;;;;;;;12.48;4.78;;;;;;;16.89;100.00;101301.09;5073903;28;20028;-69
2023/10/11 00:03:52;;;;;;;9.07;4.95;;;;;;;16.85;100.00;101294.47;5092549;28;20451;-69
2023/10/11 00:06:18;;;;;;;11.27;5.07;;;;;;;16.87;100.00;101297.81;5091776;28;20499;-67
2023/10/11 00:08:43;;;;;;;9.40;4.60;;;;;;;16.80;100.00;101292.50;5076314;28;20044;-69
2023/10/11 00:11:09;;;;;;;12.48;5.20;;;;;;;16.81;100.00;101298.78;5074679;28;20048;-68
2023/10/11 00:13:36;;;;;;;13.93;4.70;;;;;;;16.77;100.00;101298.50;5075168;28;20076;-68
2023/10/11 00:16:07;;;;;;;10.98;5.03;;;;;;;16.71;100.00;101299.50;5094764;28;20032;-69
2023/10/11 00:18:34;;;;;;;;;;;;;;;16.83;100.00;101313.88;5096571;28;20028;-69
2023/10/11 00:21:02;;;;;;;8.63;4.50;;;;;;;16.68;100.00;101293.72;5096174;28;19923;-68
2023/10/11 00:23:28;;;;;;;6.72;4.70;;;;;;;16.68;100.00;101301.91;5095755;28;20479;-69
2023/10/11 00:25:58;;;;;;;9.35;5.15;;;;;;;16.65;100.00;101297.78;5094652;28;20028;-66
2023/10/11 00:28:24;;;;;;;11.93;4.80;;;;;;;16.61;100.00;101293.94;5096313;28;20078;-68
2023/10/11 00:30:55;;;;;;;11.88;4.88;;;;;;;16.61;100.00;101296.66;5095977;28;20028;-69
2023/10/11 00:33:21;;;;;;;13.13;5.03;;;;;;;16.59;100.00;101305.09;5082643;28;20518;-69
2023/10/11 00:35:48;;;;;;;8.10;4.50;;;;;;;16.58;100.00;101294.44;5095903;28;20039;-68
2023/10/11 00:38:20;;;;;;;8.98;4.88;;;;;;;16.51;100.00;101297.34;5095848;28;20063;-68
2023/10/11 00:41:12;;;;;;;7.38;4.55;;;;;;;16.54;100.00;101290.56;5094664;28;20376;-68
2023/10/11 00:43:46;;;;;;;8.75;4.40;;;;;;;16.50;100.00;101292.97;5096141;28;20035;-69
2023/10/11 00:46:14;;;;;;;10.68;4.90;;;;;;;16.50;100.00;101290.25;5095501;28;20032;-68
2023/10/11 00:48:55;;;;;;;7.45;4.60;;;;;;;16.45;100.00;101290.16;5095590;28;20403;-68
2023/10/11 00:51:25;;;;;;;9.18;4.57;;;;;;;16.43;100.00;101293.16;5095859;28;20036;-69
2023/10/11 00:53:50;;;;;;;9.20;5.22;;;;;;;16.42;100.00;101286.03;5094799;28;20047;-69
2023/10/11 00:56:18;;;;;;;8.77;4.85;;;;;;;16.36;100.00;101280.75;5095511;28;20032;-69
2023/10/11 00:58:44;;;;;;;7.53;4.55;;;;;;;16.37;100.00;101287.88;5095638;28;20024;-69
2023/10/11 01:01:10;;;;;;;8.82;4.72;;;;;;;16.33;100.00;101284.81;5089782;28;20464;-68
2023/10/11 01:03:36;;;;;;;9.68;4.93;;;;;;;16.28;100.00;101284.75;5095245;28;20463;-69
2023/10/11 01:06:03;;;;;;;10.00;5.47;;;;;;;16.26;100.00;101287.75;5095209;28;20028;-69
2023/10/11 01:08:38;;;;;;;7.90;5.03;;;;;;;16.26;100.00;101289.63;5095375;28;20111;-68
2023/10/11 01:11:05;;;;;;;10.25;4.72;;;;;;;16.22;100.00;101291.22;5095196;28;20389;-69
2023/10/11 01:13:30;;;;;;;6.72;4.68;;;;;;;16.22;100.00;101286.59;5093980;28;20048;-69
2023/10/11 01:15:56;;;;;;;10.63;4.93;;;;;;;16.12;100.00;101276.38;5094191;28;20052;-69
2023/10/11 01:18:22;;;;;;;10.50;5.30;;;;;;;16.09;100.00;101282.34;5094953;28;20391;-69
2023/10/11 01:20:47;;;;;;;12.73;4.80;;;;;;;16.07;100.00;101279.00;5083902;28;20082;-68
2023/10/11 01:23:12;;;;;;;7.90;4.70;;;;;;;16.02;100.00;101278.94;5073377;28;20036;-68
2023/10/11 01:25:37;;;;;;;11.57;5.22;;;;;;;16.00;100.00;101277.53;5074891;28;20035;-69
2023/10/11 01:28:03;;;;;;;14.93;5.30;;;;;;;15.98;100.00;101277.78;5077226;28;20113;-68
2023/10/11 01:30:28;;;;;;;14.48;5.13;;;;;;;15.96;100.00;101277.22;5094295;28;20097;-68
2023/10/11 01:32:55;;;;;;;9.43;4.95;;;;;;;15.90;100.00;101276.31;5094684;28;20040;-69
2023/10/11 01:35:21;;;;;;;10.60;5.15;;;;;;;15.86;100.00;101263.44;5094452;28;20411;-68
2023/10/11 01:37:49;;;;;;;9.70;4.82;;;;;;;15.86;100.00;101266.16;5094952;28;20031;-69
2023/10/11 01:40:21;;;;;;;12.30;5.35;;;;;;;15.79;100.00;101271.75;5094341;28;20460;-68
2023/10/11 01:42:53;;;;;;;9.93;4.80;;;;;;;15.77;100.00;101266.56;5094556;28;20106;-69
2023/10/11 01:45:19;;;;;;;10.65;4.80;;;;;;;15.72;100.00;101271.91;5094707;28;20028;-68
2023/10/11 01:47:48;;;;;;;9.35;4.95;;;;;;;15.71;100.00;101264.81;5085289;28;20021;-69
2023/10/11 01:50:16;;;;;;;8.80;4.80;;;;;;;15.70;100.00;101251.41;5094475;28;20066;-68
2023/10/11 01:52:42;;;;;;;11.65;5.00;;;;;;;15.67;100.00;101254.63;5094633;28;20055;-68
2023/10/11 01:55:13;;;;;;;9.98;4.72;;;;;;;15.63;100.00;101258.97;5076227;28;20075;-68
2023/10/11 01:57:40;;;;;;;8.68;4.80;;;;;;;15.60;100.00;101260.28;5075101;28;20081;-69
2023/10/11 02:00:13;;;;;;;9.63;4.90;;;;;;;15.56;100.00;101245.47;5090812;28;20039;-69
2023/10/11 02:02:47;;;;;;;9.35;4.93;;;;;;;15.53;100.00;101240.50;5079615;28;20032;-68
2023/10/11 02:05:15;;;;;;;8.05;4.95;;;;;;;15.52;100.00;101238.84;5073838;28;20033;-70
2023/10/11 02:07:41;;;;;;;11.50;4.90;;;;;;;15.47;100.00;101241.50;5074149;28;20082;-69
2023/10/11 02:10:11;;;;;;;10.15;4.80;;;;;;;15.41;100.00;101229.69;5077362;28;20061;-69
2023/10/11 02:12:37;;;;;;;8.87;4.97;;;;;;;15.43;100.00;101230.28;5094194;28;20541;-69
2023/10/11 02:15:07;;;;;;;13.70;5.68;;;;;;;15.40;100.00;101222.59;5094341;28;20048;-68
2023/10/11 02:17:37;;;;;;;7.73;4.63;;;;;;;15.42;100.00;101223.16;5079072;28;20025;-68
2023/10/11 02:20:05;;;;;;;8.50;4.80;;;;;;;15.34;100.00;101221.69;5073100;28;20277;-68
2023/10/11 02:22:32;;;;;;;11.00;5.05;;;;;;;15.33;100.00;101209.13;5073802;28;20033;-68
2023/10/11 02:24:59;;;;;;;8.35;4.90;;;;;;;15.34;100.00;101204.47;5072390;28;20040;-69
2023/10/11 02:27:25;;;;;;;10.15;5.43;;;;;;;15.33;100.00;101213.75;5073833;28;20456;-69
2023/10/11 02:29:51;;;;;;;7.28;4.95;;;;;;;15.32;100.00;101212.09;5073890;28;20070;-72
2023/10/11 02:32:16;;;;;;;14.32;5.50;;;;;;;15.29;100.00;101210.69;5081417;28;20461;-69
2023/10/11 02:34:42;;;;;;;10.55;5.40;;;;;;;15.30;100.00;101209.63;5093467;28;20088;-69
2023/10/11 02:37:10;;;;;;;10.75;5.28;;;;;;;15.26;100.00;101213.91;5093239;28;20516;-70
2023/10/11 02:39:42;;;;;;;7.13;5.15;;;;;;;15.26;100.00;101213.09;5093725;28;20065;-69
2023/10/11 02:42:08;;;;;;;9.80;5.22;;;;;;;15.23;100.00;101209.78;5093469;28;20042;-70
2023/10/11 02:44:36;;;;;;;9.13;5.40;;;;;;;15.19;100.00;101208.63;5093347;28;20028;-69
2023/10/11 02:47:01;;;;;;;8.20;5.28;;;;;;;15.20;100.00;101217.63;5088803;28;20468;-70
2023/10/11 02:49:31;;;;;;;8.25;5.47;;;;;;;15.17;100.00;101210.78;5073204;28;20040;-70
2023/10/11 02:51:57;;;;;;;8.38;4.75;;;;;;;15.16;100.00;101208.31;5073181;28;20028;-70
2023/10/11 02:54:39;;;;;;;11.93;5.20;;;;;;;15.15;100.00;101203.91;5076075;28;20034;-69
2023/10/11 02:57:06;;;;;;;12.70;5.55;;;;;;;15.13;100.00;101208.78;5075094;28;20036;-70
2023/10/11 02:59:33;;;;;;;10.80;5.15;;;;;;;15.12;100.00;101204.41;5072788;28;20479;-69
2023/10/11 03:02:03;;;;;;;9.52;5.50;;;;;;;15.10;100.00;101204.66;5082962;28;20059;-70
2023/10/11 03:04:38;;;;;;;15.52;5.85;;;;;;;15.10;100.00;101214.72;5093401;28;20063;-69
2023/10/11 03:07:04;;;;;;;10.05;4.95;;;;;;;15.07;100.00;101208.69;5092894;28;20073;-69
2023/10/11 03:09:29;;;;;;;13.43;6.07;;;;;;;15.05;100.00;101204.56;5093110;28;20460;-70
2023/10/11 03:12:05;;;;;;;12.68;5.72;;;;;;;15.02;100.00;101205.03;5080018;28;20041;-69
2023/10/11 03:14:33;;;;;;;8.82;5.22;;;;;;;14.98;100.00;101196.53;5091353;28;20028;-69
2023/10/11 03:17:06;;;;;;;12.73;5.82;;;;;;;14.89;100.00;101190.66;5090778;28;20508;-69
2023/10/11 03:19:34;;;;;;;9.15;5.40;;;;;;;14.96;100.00;101176.91;5089590;28;20035;-70
2023/10/11 03:22:02;;;;;;;8.27;5.38;;;;;;;14.95;100.00;101183.41;5092713;28;20028;-69
2023/10/11 03:24:33;;;;;;;9.85;5.70;;;;;;;14.98;100.00;101179.38;5072496;28;20039;-69
2023/10/11 03:27:00;;;;;;;10.63;5.90;;;;;;;14.96;100.00;101190.53;5072615;28;20115;-69
2023/10/11 03:29:26;;;;;;;10.75;5.40;;;;;;;14.96;100.00;101189.69;5072172;28;20029;-69
2023/10/11 03:31:51;;;;;;;10.88;6.00;;;;;;;14.94;100.00;101189.13;5075015;28;20476;-69
2023/10/11 03:34:19;;;;;;;10.30;5.82;;;;;;;14.90;100.00;101188.78;5092632;28;20024;-69
2023/10/11 03:36:52;;;;;;;11.80;5.68;;;;;;;14.91;100.00;101189.59;5092473;28;20472;-70
2023/10/11 03:44:35;;;;;;;14.15;5.85;;;;;;;14.83;100.00;101183.47;5092680;28;20038;-69
2023/10/11 03:47:14;;;;;;;8.68;5.50;;;;;;;14.81;100.00;101182.91;5091753;28;20036;-70
2023/10/11 03:52:25;;;;;;;12.05;6.05;;;;;;;14.79;100.00;101186.94;5074687;28;20040;-69
2023/10/11 03:55:09;;;;;;;12.18;5.97;;;;;;;14.82;100.00;101178.28;5072400;28;20114;-69
2023/10/11 03:57:42;;;;;;;10.48;5.78;;;;;;;14.76;100.00;101180.06;5072448;28;20039;-69
2023/10/11 04:03:02;;;;;;;;;;;;;;;14.89;100.00;101182.50;5083801;28;20047;-69
2023/10/11 04:05:33;;;;;;;9.45;6.20;;;;;;;14.78;100.00;101171.66;5090950;28;19912;-69
2023/10/11 04:08:01;;;;;;;9.25;5.53;;;;;;;14.78;100.00;101171.66;5092464;28;20024;-69
2023/10/11 04:10:38;;;;;;;10.43;5.80;;;;;;;14.76;100.00;101171.09;5092278;28;20107;-69
2023/10/11 04:13:08;;;;;;;12.18;5.95;;;;;;;14.75;100.00;101174.88;5092332;28;20048;-69
2023/10/11 04:15:33;;;;;;;12.65;5.88;;;;;;;14.69;100.00;101158.44;5078072;28;20029;-69
2023/10/11 04:18:05;;;;;;;10.90;6.25;;;;;;;14.73;100.00;101163.41;5071954;28;20029;-69
2023/10/11 04:20:33;;;;;;;9.88;6.10;;;;;;;14.73;100.00;101152.50;5071948;28;20033;-69
2023/10/11 04:23:10;;;;;;;12.38;5.88;;;;;;;14.73;100.00;101155.22;5072194;28;20024;-69
2023/10/11 04:25:37;;;;;;;14.15;6.70;;;;;;;14.73;100.00;101152.50;5072009;28;20464;-69
2023/10/11 04:28:05;;;;;;;10.13;6.50;;;;;;;14.70;100.00;101168.28;5072073;28;20029;-69
2023/10/11 04:30:44;;;;;;;12.65;6.32;;;;;;;14.69;100.00;101149.47;5072077;28;20033;-69
2023/10/11 04:33:19;;;;;;;8.55;5.88;;;;;;;14.69;100.00;101146.72;5078541;28;20475;-68
2023/10/11 04:35:56;;;;;;;9.25;6.10;;;;;;;14.67;100.00;101146.97;5092295;28;20452;-69
2023/10/11 04:38:21;;;;;;;11.48;6.20;;;;;;;14.73;100.00;101144.34;5092118;28;20440;-69
2023/10/11 04:40:53;;;;;;;12.55;5.90;;;;;;;14.70;100.00;101157.38;5092200;28;20107;-69
2023/10/11 04:43:25;;;;;;;10.60;5.97;;;;;;;14.73;100.00;101157.94;5091628;28;20541;-69
2023/10/11 04:45:54;;;;;;;10.30;5.93;;;;;;;14.70;100.00;101157.38;5094729;28;20036;-69
2023/10/11 04:48:29;;;;;;;11.32;6.28;;;;;;;14.73;100.00;101166.13;5093837;28;20040;-69
2023/10/11 04:51:07;;;;;;;10.75;6.13;;;;;;;14.71;100.00;101164.47;5095820;28;20111;-69
2023/10/11 04:53:34;;;;;;;10.05;5.90;;;;;;;14.70;100.00;101159.25;5094592;28;20032;-69
2023/10/11 04:56:10;;;;;;;9.60;6.55;;;;;;;14.71;100.00;101148.13;5095338;28;20464;-69
2023/10/11 04:58:42;;;;;;;9.30;5.90;;;;;;;14.70;100.00;101157.38;5095483;28;20028;-69
2023/10/11 05:01:11;;;;;;;13.20;6.85;;;;;;;14.68;100.00;101164.97;5092963;28;20035;-69
2023/10/11 05:03:37;;;;;;;13.13;6.55;;;;;;;14.65;100.00;101167.34;5094942;28;20471;-69
2023/10/11 05:06:13;;;;;;;13.70;7.00;;;;;;;14.60;100.00;101173.50;5095474;28;20088;-69
2023/10/11 05:08:51;;;;;;;17.25;6.45;;;;;;;14.63;100.00;101173.03;5094502;28;20031;-69
2023/10/11 05:11:32;;;;;;;10.63;6.30;;;;;;;14.60;100.00;101168.06;5095292;28;20361;-69
2023/10/11 05:14:10;;;;;;;10.82;6.45;;;;;;;14.60;100.00;101165.34;5095463;28;20042;-69
2023/10/11 05:16:44;;;;;;;14.25;6.50;;;;;;;14.61;100.00;101163.47;5093661;28;20032;-69
2023/10/11 05:19:14;;;;;;;14.13;7.20;;;;;;;14.59;100.00;101158.22;5095257;28;20038;-69
2023/10/11 05:21:39;;;;;;;9.32;6.45;;;;;;;14.59;100.00;101171.03;5093336;28;20441;-69
2023/10/11 05:24:29;;;;;;;10.93;6.70;;;;;;;14.60;100.00;101175.38;5074730;28;20036;-69
2023/10/11 05:27:11;;;;;;;11.55;6.65;;;;;;;14.58;100.00;101172.09;5073694;28;20025;-69
2023/10/11 05:30:05;;;;;;;9.98;6.50;;;;;;;14.58;100.00;101172.91;5074535;28;20035;-69
2023/10/11 05:32:27;;;;;;;11.52;6.90;;;;;;;14.58;100.00;101172.91;5087890;28;20067;-69
2023/10/11 05:51:21;;;;;;;13.00;6.97;;;;;;;14.52;100.00;101172.00;5087949;28;20047;-69
2023/10/11 05:53:49;;;;;;;17.98;7.20;;;;;;;14.53;100.00;101170.91;5078641;28;20036;-69
2023/10/11 05:56:20;;;;;;;12.20;7.00;;;;;;;14.52;100.00;101182.91;5073304;28;20078;-69
2023/10/11 05:58:55;;;;;;;;;;;;;;;14.67;100.00;101190.56;5074752;28;20058;-69
2023/10/11 06:01:22;;;;;;;12.40;7.07;;;;;;;14.52;100.00;101187.50;5072461;28;19965;-70
2023/10/11 06:03:51;;;;;;;11.50;6.85;;;;;;;14.54;100.00;101185.38;5094444;28;20024;-69
2023/10/11 06:06:38;;;;;;;14.30;7.57;;;;;;;14.55;100.00;101187.00;5094084;28;20028;-69
2023/10/11 06:09:08;;;;;;;11.50;7.30;;;;;;;14.54;100.00;101179.94;5092583;28;20035;-69
2023/10/11 06:11:36;;;;;;;18.25;8.00;;;;;;;14.55;100.00;101184.28;5092605;28;20114;-69
2023/10/11 06:14:06;;;;;;;12.27;7.40;;;;;;;14.50;100.00;101184.19;5075741;28;20036;-69
2023/10/11 06:16:39;;;;;;;10.82;7.00;;;;;;;14.51;100.00;101169.53;5075075;28;20275;-69
2023/10/11 06:19:18;;;;;;;14.73;7.90;;;;;;;14.57;100.00;101171.28;5073848;28;20090;-69
2023/10/11 06:21:56;;;;;;;12.52;7.30;;;;;;;14.57;100.00;101174.00;5072586;28;20059;-69
2023/10/11 06:24:22;;;;;;;11.98;7.40;;;;;;;14.58;100.00;101175.63;5080539;28;20036;-69
2023/10/11 06:29:16;;;;;;;14.60;7.80;;;;;;;14.65;100.00;101170.06;5073810;28;20085;-69
2023/10/11 06:31:44;;;;;;;15.82;7.43;;;;;;;14.63;100.00;101175.78;5073629;28;20032;-69
2023/10/11 06:34:23;;;;;;;14.48;7.50;;;;;;;14.63;100.00;101175.78;5073612;28;20062;-69
2023/10/11 06:36:53;;;;;;;16.00;7.20;;;;;;;14.69;100.00;101182.97;5087101;28;20778;-69
2023/10/11 06:42:14;;;;;;;14.23;7.35;;;;;;;14.73;100.00;101183.28;5093424;28;20043;-69
2023/10/11 06:44:47;;;;;;;13.48;7.55;;;;;;;14.70;100.00;101181.06;5092112;28;20551;-69
2023/10/11 06:47:13;;;;;;;12.05;7.20;;;;;;;14.71;100.00;101186.25;5074184;28;20054;-69
2023/10/11 06:49:40;;;;;;;13.95;7.13;;;;;;;14.75;100.00;101180.31;5071795;28;20036;-69
2023/10/11 06:52:11;;;;;;;13.52;7.63;;;;;;;14.74;100.00;101184.94;5072943;28;20119;-69
2023/10/11 06:54:38;;;;;;;18.00;8.00;;;;;;;14.80;100.00;101183.16;5071659;28;20476;-69
2023/10/11 06:57:03;;;;;;;12.88;7.03;;;;;;;14.77;100.00;101186.38;5073144;28;20346;-69
2023/10/11 06:59:29;;;;;;;12.95;7.78;;;;;;;14.80;100.00;101188.59;5078082;28;20101;-69
2023/10/11 07:01:54;;;;;;;15.07;7.60;;;;;;;14.84;100.00;101189.75;5087313;28;20097;-73
2023/10/11 07:04:20;;;;;;;12.63;7.28;;;;;;;14.88;100.00;101190.91;5088438;28;20081;-74
2023/10/11 07:06:49;;;;;;;13.20;7.47;;;;;;;14.89;100.00;101196.13;5075268;28;20086;-69
2023/10/11 07:09:22;;;;;;;13.45;7.40;;;;;;;14.93;100.00;101196.47;5072909;28;20025;-69
2023/10/11 07:12:16;;;;;;;12.65;7.30;;;;;;;14.92;100.00;101192.09;5072700;28;20051;-74
2023/10/11 07:14:37;;;;;;;13.50;7.72;;;;;;;14.96;100.00;101212.31;5072231;28;20097;-69
2023/10/11 07:17:08;;;;;;;13.63;7.32;;;;;;;15.00;100.00;101218.91;5087021;28;20074;-68
2023/10/11 07:19:36;;;;;;;16.17;8.05;;;;;;;15.03;100.00;101220.34;5091085;28;20035;-69
2023/10/11 07:22:03;;;;;;;14.38;7.93;;;;;;;15.07;100.00;101227.78;5091704;28;20059;-69
2023/10/11 07:27:08;;;;;;;13.23;7.22;;;;;;;15.16;100.00;101246.47;5092451;28;20479;-68
2023/10/11 07:29:35;;;;;;;11.77;7.50;;;;;;;15.21;100.00;101243.81;5091369;28;20024;-69
2023/10/11 07:32:02;;;;;;;14.27;7.80;;;;;;;15.24;100.00;101249.59;5091844;28;20085;-69
2023/10/11 07:34:27;;;;;;;15.00;7.70;;;;;;;15.27;100.00;101248.28;5091922;28;20103;-70
2023/10/11 07:36:52;;;;;;;14.68;7.25;;;;;;;15.28;100.00;101243.66;5077610;28;20111;-69
2023/10/11 07:39:19;;;;;;;14.82;7.55;;;;;;;15.33;100.00;101241.03;5070874;28;20029;-70
2023/10/11 07:42:36;;;;;;;12.32;7.55;;;;;;;15.35;100.00;101234.25;5072113;28;20036;-67
2023/10/11 07:44:56;;;;;;;15.05;7.43;;;;;;;15.38;100.00;101230.19;5077396;28;20070;-69
2023/10/11 07:47:25;;;;;;;14.73;7.25;;;;;;;15.41;100.00;101232.41;5091720;28;20028;-69
2023/10/11 07:49:54;;;;;;;12.85;7.65;;;;;;;15.46;100.00;101234.41;5091931;28;20028;-70
2023/10/11 07:52:20;;;;;;;15.40;7.32;;;;;;;15.49;100.00;101229.28;5091625;28;20078;-70
2023/10/11 07:54:45;;;;;;;10.95;7.47;;;;;;;15.57;100.00;101228.84;5092069;28;20063;-71
2023/10/11 07:57:14;;;;;;;14.35;7.15;;;;;;;15.62;100.00;101232.75;5086995;28;20479;-71
2023/10/11 07:59:40;;;;;;;10.68;7.68;;;;;;;15.73;100.00;101234.53;5091713;28;20063;-71
2023/10/11 08:02:09;;;;;;;11.63;7.50;;;;;;;15.77;100.00;101231.09;5081677;28;20460;-71
2023/10/11 08:04:44;;;;;;;19.83;7.95;;;;;;;15.83;100.00;101231.19;5076142;28;20028;-71
2023/10/11 08:07:12;;;;;;;15.60;7.85;;;;;;;15.96;100.00;101228.09;5074263;28;20032;-71
2023/10/11 08:09:47;;;;;;;17.80;8.60;;;;;;;16.01;100.00;101225.44;5071838;28;20028;-70
2023/10/11 08:12:14;;;;;;;16.90;7.88;;;;;;;16.02;100.00;101224.34;5073605;28;20428;-69
2023/10/11 08:14:45;;;;;;;13.98;8.18;;;;;;;16.06;100.00;101228.25;5071839;28;20460;-67
2023/10/11 08:17:20;;;;;;;12.10;7.70;;;;;;;16.09;100.00;101227.72;5081886;28;20036;-72
2023/10/11 08:19:48;;;;;;;12.63;7.22;;;;;;;16.05;100.00;101223.84;5092278;28;20031;-68
2023/10/11 08:22:15;;;;;;;17.77;8.10;;;;;;;16.08;100.00;101231.53;5075703;28;20029;-68
2023/10/11 08:24:49;;;;;;;16.75;8.57;;;;;;;16.12;100.00;101238.16;5082451;28;20035;-67
2023/10/11 08:27:27;;;;;;;13.82;7.82;;;;;;;16.11;100.00;101246.59;5082677;28;20051;-68
2023/10/11 08:30:09;;;;;;;13.23;7.90;;;;;;;16.11;100.00;101250.13;5087416;28;20064;-70
2023/10/11 08:32:42;;;;;;;14.30;8.50;;;;;;;16.13;100.00;101252.63;5094845;28;20115;-67
2023/10/11 08:35:11;;;;;;;14.00;7.72;;;;;;;16.16;100.00;101248.56;5090372;28;20034;-69
2023/10/11 08:37:37;;;;;;;16.35;7.70;;;;;;;16.20;100.00;101241.50;5094853;28;20051;-68
2023/10/11 08:42:52;;;;;;;14.85;8.10;;;;;;;16.29;100.00;101245.47;5094830;28;20043;-69
2023/10/11 08:45:25;;;;;;;14.00;8.05;;;;;;;16.32;100.00;101258.59;5095877;28;20032;-68
2023/10/11 08:47:52;;;;;;;12.93;7.53;;;;;;;16.39;100.00;101253.75;5093668;28;20047;-67
2023/10/11 08:50:18;;;;;;;16.90;7.75;;;;;;;16.47;100.00;101261.53;5095587;28;20042;-68
2023/10/11 08:52:44;;;;;;;14.52;7.88;;;;;;;16.55;100.00;101257.50;5095284;28;20029;-69
2023/10/11 08:55:12;;;;;;;14.73;7.78;;;;;;;16.62;100.00;101249.97;5095775;28;20034;-68
2023/10/11 08:57:38;;;;;;;15.18;8.30;;;;;;;16.68;100.00;101250.00;5094283;28;20046;-67
2023/10/11 09:00:17;;;;;;;20.00;8.75;;;;;;;16.67;100.00;101260.13;5091155;28;20031;-68
2023/10/11 09:02:48;;;;;;;14.10;8.88;;;;;;;16.68;100.00;101271.84;5079108;28;20051;-66
2023/10/11 09:05:29;;;;;;;14.52;7.82;;;;;;;16.70;100.00;101270.53;5092346;28;20151;-68
2023/10/11 09:07:55;;;;;;;19.48;8.07;;;;;;;16.77;100.00;101279.38;5094265;28;20430;-66
2023/10/11 09:10:25;;;;;;;19.15;9.73;;;;;;;16.80;100.00;101272.53;5091270;28;20036;-68
2023/10/11 09:12:56;;;;;;;14.07;9.02;;;;;;;16.85;100.00;101269.88;5094007;28;20097;-68
2023/10/11 09:15:22;;;;;;;20.65;10.45;;;;;;;16.84;100.00;101263.56;5088220;28;20459;-68
2023/10/11 09:17:50;;;;;;;19.30;10.15;;;;;;;16.86;100.00;101268.78;5079482;28;20028;-69
2023/10/11 09:20:23;;;;;;;18.67;10.30;;;;;;;16.88;100.00;101257.63;5089963;28;20115;-69
2023/10/11 09:22:52;;;;;;;21.20;10.95;;;;;;;16.88;100.00;101249.41;5079901;28;20032;-71
2023/10/11 09:25:23;;;;;;;20.15;11.05;;;;;;;16.91;100.00;101265.31;5084742;28;20674;-68
2023/10/11 09:27:50;;;;;;;17.85;11.32;;;;;;;16.91;100.00;101263.41;5093428;28;20024;-70
2023/10/11 09:30:21;;;;;;;22.98;12.40;;;;;;;16.92;100.00;101275.16;5092503;28;20437;-68
2023/10/11 09:32:51;;;;;;;22.20;13.00;;;;;;;16.95;100.00;101274.66;5092073;28;20032;-70
2023/10/11 09:35:26;;;;;;;20.37;11.87;;;;;;;16.91;100.00;101281.69;5091615;28;20036;-69
2023/10/11 09:37:55;;;;;;;23.08;13.10;;;;;;;16.94;100.00;101278.44;5090636;28;20035;-69
2023/10/11 09:40:27;;;;;;;20.38;13.00;;;;;;;16.92;100.00;101273.25;5091120;28;20043;-71
2023/10/11 09:42:56;;;;;;;23.77;13.15;;;;;;;16.96;100.00;101287.25;5092647;28;20032;-73
2023/10/11 09:45:28;;;;;;;23.17;13.70;;;;;;;16.96;100.00;101284.50;5090299;28;20058;-71
2023/10/11 09:47:54;;;;;;;20.85;13.65;;;;;;;16.98;100.00;101279.59;5077712;28;20059;-70
2023/10/11 09:50:22;;;;;;;18.40;12.35;;;;;;;16.97;100.00;101280.69;5093729;28;20024;-69
2023/10/11 09:52:51;;;;;;;19.00;12.40;;;;;;;16.99;100.00;101278.53;5094489;28;20045;-71
2023/10/11 09:55:30;;;;;;;17.40;12.85;;;;;;;17.03;100.00;101285.13;5083093;28;20521;-66
2023/10/11 09:58:11;;;;;;;21.95;12.68;;;;;;;17.06;100.00;101276.41;5074426;28;20075;-70
2023/10/11 10:01:10;;;;;;;20.83;13.90;;;;;;;17.14;100.00;101267.72;5078828;28;20020;-71
2023/10/11 10:03:38;;;;;;;20.95;13.32;;;;;;;17.06;100.00;101279.16;5083284;28;20148;-72
2023/10/11 10:06:22;;;;;;;19.33;13.77;;;;;;;17.05;100.00;101282.97;5093083;28;20028;-72
2023/10/11 10:09:23;;;;;;;25.05;15.10;;;;;;;17.05;100.00;101290.34;5093968;28;20366;-69
2023/10/11 10:12:09;;;;;;;24.55;15.98;;;;;;;17.06;100.00;101290.09;5089660;28;20097;-71
2023/10/11 10:14:38;;;;;;;24.52;15.68;;;;;;;17.02;100.00;101283.47;5081657;28;20021;-68
2023/10/11 10:17:15;;;;;;;23.58;16.40;;;;;;;16.98;100.00;101298.72;5089595;28;20539;-68
2023/10/11 10:19:45;;;;;;;24.05;16.05;;;;;;;17.00;100.00;101315.72;5090784;28;20059;-68
2023/10/11 10:22:17;;;;;;;24.55;16.52;;;;;;;16.97;100.00;101308.03;5093079;28;20024;-70
2023/10/11 10:24:43;;;;;;;25.77;17.33;;;;;;;16.94;100.00;101308.53;5092536;28;20024;-68
2023/10/11 10:27:36;;;;;;;28.02;16.98;;;;;;;17.02;100.00;101299.88;5093993;28;20382;-69
2023/10/11 10:30:04;;;;;;;31.75;17.95;;;;;;;16.90;100.00;101300.03;5093662;28;20077;-70
2023/10/11 10:32:29;;;;;;;23.85;16.83;;;;;;;16.88;100.00;101290.41;5091087;28;20031;-69
2023/10/11 10:35:20;;;;;;;31.50;18.25;;;;;;;16.93;100.00;101287.75;5093835;28;20032;-69
2023/10/11 10:37:59;;;;;;;26.90;16.88;;;;;;;16.90;100.00;101297.28;5093535;28;20046;-68
2023/10/11 10:40:25;;;;;;;28.30;16.95;;;;;;;16.95;100.00;101288.31;5093395;28;20506;-73
2023/10/11 10:43:06;;;;;;;26.67;17.40;;;;;;;16.98;100.00;101285.06;5093501;28;20031;-76
2023/10/11 10:45:31;;;;;;;24.50;16.40;;;;;;;16.95;100.00;101285.59;5075498;28;20032;-75
2023/10/11 10:48:13;;;;;;;27.98;16.70;;;;;;;16.96;100.00;101290.78;5082809;28;20020;-73
2023/10/11 10:50:48;;;;;;;25.10;16.63;;;;;;;16.95;100.00;101289.16;5091982;28;20028;-69
2023/10/11 10:53:16;;;;;;;24.35;17.23;;;;;;;16.90;100.00;101283.63;5091957;28;20028;-70
2023/10/11 10:55:45;;;;;;;26.92;16.35;;;;;;;16.89;100.00;101283.88;5091932;28;20028;-69
2023/10/11 10:58:20;;;;;;;26.67;16.92;;;;;;;16.89;100.00;101297.53;5093866;28;20024;-73
2023/10/11 11:00:52;;;;;;;25.33;16.40;;;;;;;16.92;100.00;101295.13;5088908;28;20304;-75
2023/10/11 11:03:32;;;;;;;25.15;16.50;;;;;;;16.94;100.00;101292.13;5073744;28;20039;-71
2023/10/11 11:06:00;;;;;;;25.17;17.27;;;;;;;16.95;100.00;101285.59;5088643;28;20479;-72
2023/10/11 11:08:37;;;;;;;26.48;17.92;;;;;;;16.96;100.00;101289.97;5093213;28;20031;-71
2023/10/11 11:14:10;;;;;;;30.67;17.33;;;;;;;16.98;100.00;101282.34;5058632;28;20074;-72
2023/10/11 11:16:39;;;;;;;27.48;16.60;;;;;;;17.01;100.00;101273.63;5092081;28;20028;-75
2023/10/11 11:19:16;;;;;;;26.73;16.45;;;;;;;17.02;100.00;101261.59;5091700;28;20089;-71
2023/10/11 11:21:45;;;;;;;24.02;16.27;;;;;;;17.05;100.00;101261.09;5091530;28;20032;-70
2023/10/11 11:24:18;;;;;;;24.63;15.90;;;;;;;17.08;100.00;101255.09;5092302;28;20036;-71
2023/10/11 11:26:45;;;;;;;24.42;15.60;;;;;;;17.11;100.00;101248.28;5092962;28;20069;-71
2023/10/11 11:29:16;;;;;;;26.20;15.18;;;;;;;17.11;100.00;101265.53;5090570;28;20036;-71
2023/10/11 11:31:52;;;;;;;24.30;15.30;;;;;;;17.12;100.00;101260.88;5092820;28;20039;-72
2023/10/11 11:34:27;;;;;;;25.08;14.55;;;;;;;17.12;100.00;101253.50;5093205;28;20596;-70
2023/10/11 11:37:00;;;;;;;22.77;15.15;;;;;;;17.10;100.00;101252.91;5092645;28;20034;-69
2023/10/11 11:39:26;;;;;;;22.88;15.05;;;;;;;17.10;100.00;101249.38;5092790;28;20081;-70
2023/10/11 11:41:57;;;;;;;23.90;15.98;;;;;;;17.09;100.00;101234.88;5091298;28;20502;-70
2023/10/11 11:44:28;;;;;;;25.08;15.52;;;;;;;17.08;100.00;101216.81;5084755;28;20119;-70
2023/10/11 11:46:55;;;;;;;30.80;15.82;;;;;;;17.13;100.00;101214.13;5081342;28;20036;-70
2023/10/11 11:49:23;;;;;;;24.17;15.00;;;;;;;17.16;100.00;101218.25;5092623;28;20036;-70
2023/10/11 11:51:52;;;;;;;22.75;14.25;;;;;;;17.20;100.00;101221.31;5092011;28;20086;-70
2023/10/11 11:54:22;;;;;;;24.52;13.85;;;;;;;17.18;100.00;101218.81;5092047;28;20111;-70
2023/10/11 11:56:48;;;;;;;20.42;14.23;;;;;;;17.16;100.00;101218.25;5090950;28;20062;-71
2023/10/11 11:59:20;;;;;;;28.30;14.70;;;;;;;17.21;100.00;101231.13;5077313;28;20060;-70
2023/10/11 12:01:52;;;;;;;20.88;14.25;;;;;;;17.23;100.00;101220.78;5069846;28;20036;-69
2023/10/11 12:04:34;;;;;;;27.55;14.32;;;;;;;17.27;100.00;101216.41;5071036;28;20021;-70
2023/10/11 12:07:02;;;;;;;20.55;12.82;;;;;;;17.34;100.00;101192.41;5077590;28;20049;-71